sensor_id;sensor_type;location;lat;lon;timestamp;pressure;altitude;pressure_sealevel;temperature;humidity
11971;BME280;6045;42.682;23.294;2023-08-21T00:00:54;94973.03;;;26.17;51.04
11971;BME280;6045;42.682;23.294;2023-08-21T00:03:21;94967.25;;;26.19;50.05
11971;BME280;6045;42.682;23.294;2023-08-21T00:05:48;94974.56;;;26.10;50.30
11971;BME280;6045;42.682;23.294;2023-08-21T00:08:15;94970.72;;;26.02;50.22
11971;BME280;6045;42.682;23.294;2023-08-21T00:10:41;94962.00;;;26.00;51.18
11971;BME280;6045;42.682;23.294;2023-08-21T00:13:10;94972.16;;;26.00;51.38
11971;BME280;6045;42.682;23.294;2023-08-21T00:15:37;94974.56;;;26.10;51.63
11971;BME280;6045;42.682;23.294;2023-08-21T00:18:04;94968.53;;;26.30;51.10
11971;BME280;6045;42.682;23.294;2023-08-21T00:20:31;94971.44;;;26.33;50.79
11971;BME280;6045;42.682;23.294;2023-08-21T00:22:58;94967.41;;;26.31;50.94
11971;BME280;6045;42.682;23.294;2023-08-21T00:25:25;94966.78;;;26.34;51.02
11971;BME280;6045;42.682;23.294;2023-08-21T00:27:52;94966.13;;;26.37;50.92
11971;BME280;6045;42.682;23.294;2023-08-21T00:30:20;94971.00;;;26.40;51.17
11971;BME280;6045;42.682;23.294;2023-08-21T00:32:47;94965.66;;;26.35;51.23
11971;BME280;6045;42.682;23.294;2023-08-21T00:35:14;94961.91;;;26.31;51.06
11971;BME280;6045;42.682;23.294;2023-08-21T00:37:41;94970.66;;;26.33;51.28
11971;BME280;6045;42.682;23.294;2023-08-21T00:40:11;94963.69;;;26.27;51.33
11971;BME280;6045;42.682;23.294;2023-08-21T00:42:38;94970.47;;;26.21;51.59
11971;BME280;6045;42.682;23.294;2023-08-21T00:45:05;94974.66;;;26.27;51.70
11971;BME280;6045;42.682;23.294;2023-08-21T00:47:35;94974.50;;;26.23;51.44
11971;BME280;6045;42.682;23.294;2023-08-21T00:50:02;94967.06;;;26.24;51.71
11971;BME280;6045;42.682;23.294;2023-08-21T00:52:30;94975.00;;;26.25;51.45
11971;BME280;6045;42.682;23.294;2023-08-21T00:54:57;94974.66;;;26.27;51.81
11971;BME280;6045;42.682;23.294;2023-08-21T00:57:24;94977.53;;;26.22;51.75
11971;BME280;6045;42.682;23.294;2023-08-21T00:59:51;94974.47;;;26.15;51.08
11971;BME280;6045;42.682;23.294;2023-08-21T01:02:18;94975.38;;;26.02;52.01
11971;BME280;6045;42.682;23.294;2023-08-21T01:04:46;94984.81;;;25.87;52.43
11971;BME280;6045;42.682;23.294;2023-08-21T01:07:13;94982.56;;;25.89;52.71
11971;BME280;6045;42.682;23.294;2023-08-21T01:09:46;94984.34;;;25.85;52.29
11971;BME280;6045;42.682;23.294;2023-08-21T01:12:28;94986.53;;;25.74;52.50
11971;BME280;6045;42.682;23.294;2023-08-21T01:14:59;94977.22;;;25.75;53.17
11971;BME280;6045;42.682;23.294;2023-08-21T01:17:28;94979.47;;;25.73;53.15
11971;BME280;6045;42.682;23.294;2023-08-21T01:19:57;94976.09;;;25.76;53.32
11971;BME280;6045;42.682;23.294;2023-08-21T01:22:26;94978.84;;;25.76;53.59
11971;BME280;6045;42.682;23.294;2023-08-21T01:24:55;94976.09;;;25.76;53.13
11971;BME280;6045;42.682;23.294;2023-08-21T01:27:22;94983.31;;;25.72;53.32
11971;BME280;6045;42.682;23.294;2023-08-21T01:29:51;94983.31;;;25.72;53.41
11971;BME280;6045;42.682;23.294;2023-08-21T01:32:27;94982.91;;;25.88;53.14
11971;BME280;6045;42.682;23.294;2023-08-21T01:34:57;94976.78;;;25.91;53.04
11971;BME280;6045;42.682;23.294;2023-08-21T01:37:26;94977.50;;;26.05;52.88
11971;BME280;6045;42.682;23.294;2023-08-21T01:39:54;94983.34;;;26.12;52.37
11971;BME280;6045;42.682;23.294;2023-08-21T01:42:24;94987.31;;;26.06;52.59
11971;BME280;6045;42.682;23.294;2023-08-21T01:44:51;94984.47;;;26.11;52.50
11971;BME280;6045;42.682;23.294;2023-08-21T01:47:17;94977.88;;;26.12;52.74
11971;BME280;6045;42.682;23.294;2023-08-21T01:49:44;94977.78;;;26.03;52.81
11971;BME280;6045;42.682;23.294;2023-08-21T01:52:11;94977.16;;;25.98;52.72
11971;BME280;6045;42.682;23.294;2023-08-21T01:54:38;94986.63;;;25.92;53.07
11971;BME280;6045;42.682;23.294;2023-08-21T01:57:06;94978.84;;;25.76;53.43
11971;BME280;6045;42.682;23.294;2023-08-21T01:59:33;94980.53;;;25.64;53.78
11971;BME280;6045;42.682;23.294;2023-08-21T02:02:00;94984.69;;;25.53;54.39
11971;BME280;6045;42.682;23.294;2023-08-21T02:04:26;94979.25;;;25.61;54.28
11971;BME280;6045;42.682;23.294;2023-08-21T02:06:53;94976.66;;;25.65;54.22
11971;BME280;6045;42.682;23.294;2023-08-21T02:09:20;94977.78;;;25.55;54.35
11971;BME280;6045;42.682;23.294;2023-08-21T02:11:47;94976.41;;;25.44;54.52
11971;BME280;6045;42.682;23.294;2023-08-21T02:14:15;94978.25;;;25.57;54.03
11971;BME280;6045;42.682;23.294;2023-08-21T02:16:42;94979.50;;;25.82;53.48
11971;BME280;6045;42.682;23.294;2023-08-21T02:19:09;94985.53;;;26.01;52.92
11971;BME280;6045;42.682;23.294;2023-08-21T02:21:36;94978.47;;;26.09;52.99
11971;BME280;6045;42.682;23.294;2023-08-21T02:24:03;94971.72;;;26.15;52.85
11971;BME280;6045;42.682;23.294;2023-08-21T02:26:30;94979.09;;;26.06;53.32
11971;BME280;6045;42.682;23.294;2023-08-21T02:28:57;94973.13;;;26.04;53.26
11971;BME280;6045;42.682;23.294;2023-08-21T02:31:25;94978.97;;;26.11;52.81
11971;BME280;6045;42.682;23.294;2023-08-21T02:33:52;94972.38;;;26.12;52.92
11971;BME280;6045;42.682;23.294;2023-08-21T02:36:19;94969.41;;;26.00;53.25
11971;BME280;6045;42.682;23.294;2023-08-21T02:38:46;94975.63;;;25.83;53.59
11971;BME280;6045;42.682;23.294;2023-08-21T02:41:13;94971.28;;;25.82;53.46
11971;BME280;6045;42.682;23.294;2023-08-21T02:43:39;94971.47;;;25.86;53.63
11971;BME280;6045;42.682;23.294;2023-08-21T02:46:06;94973.06;;;25.87;53.68
11971;BME280;6045;42.682;23.294;2023-08-21T02:48:35;94978.66;;;25.73;53.92
11971;BME280;6045;42.682;23.294;2023-08-21T02:51:02;94977.66;;;25.69;53.82
11971;BME280;6045;42.682;23.294;2023-08-21T02:53:29;94975.06;;;25.64;54.12
11971;BME280;6045;42.682;23.294;2023-08-21T02:55:56;94972.72;;;25.49;54.59
11971;BME280;6045;42.682;23.294;2023-08-21T02:58:23;94972.34;;;25.42;54.97
11971;BME280;6045;42.682;23.294;2023-08-21T03:00:49;94975.41;;;25.40;54.93
11971;BME280;6045;42.682;23.294;2023-08-21T03:03:16;94976.03;;;25.37;55.08
11971;BME280;6045;42.682;23.294;2023-08-21T03:05:44;94988.47;;;25.21;55.32
11971;BME280;6045;42.682;23.294;2023-08-21T03:08:11;94985.69;;;25.12;55.71
11971;BME280;6045;42.682;23.294;2023-08-21T03:10:39;94986.75;;;25.03;56.13
11971;BME280;6045;42.682;23.294;2023-08-21T03:13:05;94987.38;;;25.00;56.41
11971;BME280;6045;42.682;23.294;2023-08-21T03:15:32;94993.09;;;24.90;56.58
11971;BME280;6045;42.682;23.294;2023-08-21T03:18:00;94993.09;;;24.90;56.64
11971;BME280;6045;42.682;23.294;2023-08-21T03:20:27;94994.47;;;25.01;56.32
11971;BME280;6045;42.682;23.294;2023-08-21T03:22:55;94993.66;;;25.00;56.91
11971;BME280;6045;42.682;23.294;2023-08-21T03:25:22;94992.69;;;24.83;56.64
11971;BME280;6045;42.682;23.294;2023-08-21T03:27:49;94998.50;;;24.81;57.11
11971;BME280;6045;42.682;23.294;2023-08-21T03:30:16;94993.94;;;24.77;57.41
11971;BME280;6045;42.682;23.294;2023-08-21T03:32:45;95001.41;;;24.85;56.95
11971;BME280;6045;42.682;23.294;2023-08-21T03:35:12;94992.09;;;24.86;56.90
11971;BME280;6045;42.682;23.294;2023-08-21T03:37:38;94996.78;;;24.72;56.80
11971;BME280;6045;42.682;23.294;2023-08-21T03:40:08;94994.34;;;24.70;57.14
11971;BME280;6045;42.682;23.294;2023-08-21T03:42:35;94995.34;;;24.74;57.33
11971;BME280;6045;42.682;23.294;2023-08-21T03:45:02;94998.41;;;24.59;57.26
11971;BME280;6045;42.682;23.294;2023-08-21T03:47:30;94995.41;;;24.61;57.66
11971;BME280;6045;42.682;23.294;2023-08-21T03:49:57;95003.88;;;24.73;57.29
11971;BME280;6045;42.682;23.294;2023-08-21T03:52:23;95002.56;;;24.70;57.34
11971;BME280;6045;42.682;23.294;2023-08-21T03:54:50;94991.78;;;24.74;57.32
11971;BME280;6045;42.682;23.294;2023-08-21T03:57:18;94999.00;;;24.70;57.05
11971;BME280;6045;42.682;23.294;2023-08-21T03:59:45;94992.22;;;24.67;57.47
11971;BME280;6045;42.682;23.294;2023-08-21T04:02:12;94999.19;;;24.87;57.15
11971;BME280;6045;42.682;23.294;2023-08-21T04:04:39;94999.00;;;25.05;56.80
11971;BME280;6045;42.682;23.294;2023-08-21T04:07:06;94997.84;;;25.20;56.14
11971;BME280;6045;42.682;23.294;2023-08-21T04:09:32;95005.31;;;25.37;55.63
11971;BME280;6045;42.682;23.294;2023-08-21T04:12:00;95002.06;;;25.48;55.21
11971;BME280;6045;42.682;23.294;2023-08-21T04:14:28;95003.25;;;25.64;54.83
11971;BME280;6045;42.682;23.294;2023-08-21T04:16:55;95006.22;;;25.76;54.76
11971;BME280;6045;42.682;23.294;2023-08-21T04:19:21;95004.28;;;25.77;54.52
11971;BME280;6045;42.682;23.294;2023-08-21T04:21:48;95007.22;;;25.89;54.45
11971;BME280;6045;42.682;23.294;2023-08-21T04:24:15;95013.75;;;26.02;53.92
11971;BME280;6045;42.682;23.294;2023-08-21T04:26:42;95021.81;;;26.07;54.00
11971;BME280;6045;42.682;23.294;2023-08-21T04:29:08;95020.09;;;26.11;53.88
11971;BME280;6045;42.682;23.294;2023-08-21T04:31:37;95022.53;;;26.21;53.64
11971;BME280;6045;42.682;23.294;2023-08-21T04:34:03;95021.75;;;26.29;53.61
11971;BME280;6045;42.682;23.294;2023-08-21T04:36:30;95018.66;;;26.22;53.39
11971;BME280;6045;42.682;23.294;2023-08-21T04:38:57;95018.50;;;26.27;53.22
11971;BME280;6045;42.682;23.294;2023-08-21T04:41:24;95018.91;;;26.42;52.97
11971;BME280;6045;42.682;23.294;2023-08-21T04:43:51;95026.78;;;26.44;53.20
11971;BME280;6045;42.682;23.294;2023-08-21T04:46:17;95025.97;;;26.52;52.60
11971;BME280;6045;42.682;23.294;2023-08-21T04:48:46;95027.94;;;26.60;52.62
11971;BME280;6045;42.682;23.294;2023-08-21T04:51:13;95024.88;;;26.62;52.42
11971;BME280;6045;42.682;23.294;2023-08-21T04:53:40;95028.00;;;26.77;51.96
11971;BME280;6045;42.682;23.294;2023-08-21T04:56:07;95027.19;;;26.85;52.35
11971;BME280;6045;42.682;23.294;2023-08-21T04:58:33;95029.78;;;26.90;51.65
11971;BME280;6045;42.682;23.294;2023-08-21T05:01:00;95039.34;;;27.01;51.77
11971;BME280;6045;42.682;23.294;2023-08-21T05:03:30;95038.50;;;27.09;51.41
11971;BME280;6045;42.682;23.294;2023-08-21T05:05:58;95030.13;;;27.06;51.35
11971;BME280;6045;42.682;23.294;2023-08-21T05:08:26;95045.78;;;27.05;51.59
11971;BME280;6045;42.682;23.294;2023-08-21T05:10:56;95043.97;;;27.18;51.17
11971;BME280;6045;42.682;23.294;2023-08-21T05:13:23;95047.69;;;27.31;51.54
11971;BME280;6045;42.682;23.294;2023-08-21T05:15:54;95046.91;;;27.47;50.54
11971;BME280;6045;42.682;23.294;2023-08-21T05:18:21;95057.09;;;27.55;50.05
11971;BME280;6045;42.682;23.294;2023-08-21T05:20:48;95047.84;;;27.68;49.65
11971;BME280;6045;42.682;23.294;2023-08-21T05:23:17;95049.28;;;27.74;49.47
11971;BME280;6045;42.682;23.294;2023-08-21T05:25:45;95049.44;;;27.78;49.63
11971;BME280;6045;42.682;23.294;2023-08-21T05:28:12;95049.91;;;27.89;49.90
11971;BME280;6045;42.682;23.294;2023-08-21T05:30:42;95049.03;;;28.05;50.28
11971;BME280;6045;42.682;23.294;2023-08-21T05:33:08;95055.63;;;28.21;48.92
11971;BME280;6045;42.682;23.294;2023-08-21T05:35:36;95050.72;;;28.35;48.41
11971;BME280;6045;42.682;23.294;2023-08-21T05:38:03;95047.44;;;28.42;47.82
11971;BME280;6045;42.682;23.294;2023-08-21T05:40:31;95045.09;;;28.53;47.15
11971;BME280;6045;42.682;23.294;2023-08-21T05:42:58;95039.25;;;28.63;46.83
11971;BME280;6045;42.682;23.294;2023-08-21T05:45:25;95039.34;;;28.75;47.44
11971;BME280;6045;42.682;23.294;2023-08-21T05:47:52;95028.97;;;28.80;45.40
11971;BME280;6045;42.682;23.294;2023-08-21T05:50:19;95039.00;;;28.76;45.60
11971;BME280;6045;42.682;23.294;2023-08-21T05:52:45;95037.06;;;28.77;44.47
11971;BME280;6045;42.682;23.294;2023-08-21T05:55:13;95036.44;;;28.42;44.98
11971;BME280;6045;42.682;23.294;2023-08-21T05:57:41;95039.13;;;28.21;46.23
11971;BME280;6045;42.682;23.294;2023-08-21T06:00:08;95036.16;;;28.26;47.66
11971;BME280;6045;42.682;23.294;2023-08-21T06:02:35;95029.09;;;28.55;52.06
11971;BME280;6045;42.682;23.294;2023-08-21T06:05:03;95038.41;;;28.91;48.33
11971;BME280;6045;42.682;23.294;2023-08-21T06:07:30;95038.06;;;29.22;52.28
11971;BME280;6045;42.682;23.294;2023-08-21T06:09:56;95035.63;;;29.41;53.21
11971;BME280;6045;42.682;23.294;2023-08-21T06:12:23;95039.59;;;29.64;49.08
11971;BME280;6045;42.682;23.294;2023-08-21T06:14:51;95041.97;;;29.87;46.75
11971;BME280;6045;42.682;23.294;2023-08-21T06:17:18;95039.72;;;30.13;43.88
11971;BME280;6045;42.682;23.294;2023-08-21T06:19:45;95047.03;;;30.41;45.72
11971;BME280;6045;42.682;23.294;2023-08-21T06:22:12;95042.66;;;30.53;46.25
11971;BME280;6045;42.682;23.294;2023-08-21T06:24:39;95038.03;;;30.81;45.99
11971;BME280;6045;42.682;23.294;2023-08-21T06:27:05;95041.72;;;30.85;41.68
11971;BME280;6045;42.682;23.294;2023-08-21T06:29:32;95049.91;;;30.93;41.60
11971;BME280;6045;42.682;23.294;2023-08-21T06:32:00;95047.16;;;30.93;41.98
11971;BME280;6045;42.682;23.294;2023-08-21T06:34:27;95047.72;;;30.99;43.17
11971;BME280;6045;42.682;23.294;2023-08-21T06:36:54;95047.78;;;31.15;42.64
11971;BME280;6045;42.682;23.294;2023-08-21T06:39:21;95050.72;;;31.34;40.90
11971;BME280;6045;42.682;23.294;2023-08-21T06:41:48;95052.31;;;31.47;41.97
11971;BME280;6045;42.682;23.294;2023-08-21T06:44:14;95056.53;;;31.56;37.76
11971;BME280;6045;42.682;23.294;2023-08-21T06:46:42;95062.81;;;31.41;38.39
11971;BME280;6045;42.682;23.294;2023-08-21T06:49:10;95058.66;;;31.75;40.54
11971;BME280;6045;42.682;23.294;2023-08-21T06:51:37;95053.50;;;32.17;40.19
11971;BME280;6045;42.682;23.294;2023-08-21T06:54:03;95056.84;;;32.54;38.22
11971;BME280;6045;42.682;23.294;2023-08-21T06:56:32;95058.19;;;32.60;37.94
11971;BME280;6045;42.682;23.294;2023-08-21T06:58:58;95052.69;;;32.79;38.64
11971;BME280;6045;42.682;23.294;2023-08-21T07:01:25;95054.66;;;32.94;36.19
11971;BME280;6045;42.682;23.294;2023-08-21T07:03:52;95054.03;;;32.85;37.53
11971;BME280;6045;42.682;23.294;2023-08-21T07:06:22;95054.03;;;32.85;37.33
11971;BME280;6045;42.682;23.294;2023-08-21T07:08:49;95056.41;;;33.18;37.47
11971;BME280;6045;42.682;23.294;2023-08-21T07:11:16;95057.97;;;33.34;36.14
11971;BME280;6045;42.682;23.294;2023-08-21T07:13:43;95049.31;;;33.74;34.74
11971;BME280;6045;42.682;23.294;2023-08-21T07:16:10;95056.91;;;33.77;34.67
11971;BME280;6045;42.682;23.294;2023-08-21T07:18:38;95052.34;;;33.50;34.72
11971;BME280;6045;42.682;23.294;2023-08-21T07:21:05;95052.47;;;33.19;35.06
11971;BME280;6045;42.682;23.294;2023-08-21T07:23:33;95046.84;;;33.15;35.89
11971;BME280;6045;42.682;23.294;2023-08-21T07:26:00;95051.41;;;33.23;35.59
11971;BME280;6045;42.682;23.294;2023-08-21T07:28:29;95051.75;;;33.56;36.28
11971;BME280;6045;42.682;23.294;2023-08-21T07:30:56;95052.03;;;33.70;33.61
11971;BME280;6045;42.682;23.294;2023-08-21T07:33:23;95050.56;;;33.77;33.93
11971;BME280;6045;42.682;23.294;2023-08-21T07:35:57;95052.88;;;33.94;34.62
11971;BME280;6045;42.682;23.294;2023-08-21T07:38:24;95049.16;;;34.28;33.68
11971;BME280;6045;42.682;23.294;2023-08-21T07:41:02;95048.56;;;34.38;33.74
11971;BME280;6045;42.682;23.294;2023-08-21T07:43:31;95050.53;;;34.60;35.40
11971;BME280;6045;42.682;23.294;2023-08-21T07:46:02;95041.34;;;34.79;33.44
11971;BME280;6045;42.682;23.294;2023-08-21T07:48:29;95039.97;;;35.18;32.12
11971;BME280;6045;42.682;23.294;2023-08-21T07:50:56;95052.03;;;35.29;32.22
11971;BME280;6045;42.682;23.294;2023-08-21T07:53:23;95046.34;;;35.19;31.83
11971;BME280;6045;42.682;23.294;2023-08-21T07:55:49;95045.44;;;35.11;32.33
11971;BME280;6045;42.682;23.294;2023-08-21T07:58:18;95040.13;;;35.02;33.98
11971;BME280;6045;42.682;23.294;2023-08-21T08:00:48;95046.22;;;35.38;31.72
11971;BME280;6045;42.682;23.294;2023-08-21T08:03:15;95037.41;;;35.36;32.02
11971;BME280;6045;42.682;23.294;2023-08-21T08:05:42;95041.91;;;35.44;31.34
11971;BME280;6045;42.682;23.294;2023-08-21T08:08:09;95044.19;;;35.64;31.57
11971;BME280;6045;42.682;23.294;2023-08-21T08:10:37;95039.16;;;35.77;30.85
11971;BME280;6045;42.682;23.294;2023-08-21T08:13:04;95028.94;;;35.85;32.01
11971;BME280;6045;42.682;23.294;2023-08-21T08:15:33;95037.63;;;35.83;31.01
11971;BME280;6045;42.682;23.294;2023-08-21T08:18:00;95029.38;;;35.90;32.17
11971;BME280;6045;42.682;23.294;2023-08-21T08:20:27;95034.78;;;36.09;30.16
11971;BME280;6045;42.682;23.294;2023-08-21T08:22:54;95035.19;;;36.11;30.65
11971;BME280;6045;42.682;23.294;2023-08-21T08:25:21;95031.38;;;36.26;30.03
11971;BME280;6045;42.682;23.294;2023-08-21T08:27:48;95029.28;;;36.57;29.77
11971;BME280;6045;42.682;23.294;2023-08-21T08:30:16;95019.97;;;36.86;29.17
11971;BME280;6045;42.682;23.294;2023-08-21T08:32:44;95021.28;;;36.52;28.71
11971;BME280;6045;42.682;23.294;2023-08-21T08:35:12;95020.72;;;36.79;29.57
11971;BME280;6045;42.682;23.294;2023-08-21T08:37:53;95020.06;;;36.96;29.06
11971;BME280;6045;42.682;23.294;2023-08-21T08:40:20;95017.41;;;37.14;29.77
11971;BME280;6045;42.682;23.294;2023-08-21T08:42:49;95013.78;;;37.07;29.40
11971;BME280;6045;42.682;23.294;2023-08-21T08:45:23;95012.66;;;37.18;28.39
11971;BME280;6045;42.682;23.294;2023-08-21T08:47:58;95005.97;;;37.33;29.57
11971;BME280;6045;42.682;23.294;2023-08-21T08:50:28;95008.81;;;37.44;27.50
11971;BME280;6045;42.682;23.294;2023-08-21T08:52:57;95006.28;;;37.21;27.96
11971;BME280;6045;42.682;23.294;2023-08-21T08:55:25;95004.41;;;37.39;28.40
11971;BME280;6045;42.682;23.294;2023-08-21T08:57:53;95003.28;;;37.51;27.59
11971;BME280;6045;42.682;23.294;2023-08-21T09:00:20;94997.31;;;37.59;27.63
11971;BME280;6045;42.682;23.294;2023-08-21T09:02:48;95001.75;;;37.67;27.81
11971;BME280;6045;42.682;23.294;2023-08-21T09:05:16;95005.75;;;37.74;27.43
11971;BME280;6045;42.682;23.294;2023-08-21T09:07:42;94999.78;;;37.75;26.78
11971;BME280;6045;42.682;23.294;2023-08-21T09:10:12;94998.59;;;37.80;27.48
11971;BME280;6045;42.682;23.294;2023-08-21T09:12:40;94995.50;;;38.16;26.59
11971;BME280;6045;42.682;23.294;2023-08-21T09:15:07;94994.28;;;37.93;26.60
11971;BME280;6045;42.682;23.294;2023-08-21T09:17:34;94986.69;;;37.93;26.97
11971;BME280;6045;42.682;23.294;2023-08-21T09:20:03;94993.41;;;37.82;27.13
11971;BME280;6045;42.682;23.294;2023-08-21T09:22:32;94992.72;;;38.06;26.68
11971;BME280;6045;42.682;23.294;2023-08-21T09:25:03;94992.78;;;38.30;26.78
11971;BME280;6045;42.682;23.294;2023-08-21T09:27:32;94987.59;;;38.47;26.76
11971;BME280;6045;42.682;23.294;2023-08-21T09:30:00;94984.44;;;38.83;26.32
11971;BME280;6045;42.682;23.294;2023-08-21T09:32:29;94985.22;;;38.49;24.80
11971;BME280;6045;42.682;23.294;2023-08-21T09:34:56;94989.59;;;38.39;25.23
11971;BME280;6045;42.682;23.294;2023-08-21T09:37:28;94977.53;;;37.89;25.36
11971;BME280;6045;42.682;23.294;2023-08-21T09:40:01;94979.53;;;37.13;25.45
11971;BME280;6045;42.682;23.294;2023-08-21T09:42:32;94978.66;;;36.95;27.14
11971;BME280;6045;42.682;23.294;2023-08-21T09:45:00;94970.47;;;36.69;26.45
11971;BME280;6045;42.682;23.294;2023-08-21T09:47:27;94969.50;;;36.98;26.59
11971;BME280;6045;42.682;23.294;2023-08-21T09:49:54;94971.75;;;37.40;26.66
11971;BME280;6045;42.682;23.294;2023-08-21T09:52:22;94970.63;;;37.65;26.66
11971;BME280;6045;42.682;23.294;2023-08-21T09:54:49;94965.53;;;37.89;25.78
11971;BME280;6045;42.682;23.294;2023-08-21T09:57:22;94973.44;;;37.76;26.25
11971;BME280;6045;42.682;23.294;2023-08-21T09:59:51;94961.59;;;38.04;25.06
11971;BME280;6045;42.682;23.294;2023-08-21T10:02:19;94958.31;;;37.81;24.48
11971;BME280;6045;42.682;23.294;2023-08-21T10:04:48;94962.50;;;37.32;25.34
11971;BME280;6045;42.682;23.294;2023-08-21T10:07:15;94952.69;;;37.74;25.28
11971;BME280;6045;42.682;23.294;2023-08-21T10:09:43;94959.19;;;38.06;24.65
11971;BME280;6045;42.682;23.294;2023-08-21T10:12:12;94950.03;;;38.23;24.41
11971;BME280;6045;42.682;23.294;2023-08-21T10:14:41;94940.66;;;37.41;24.92
11971;BME280;6045;42.682;23.294;2023-08-21T10:17:09;94943.28;;;37.13;25.52
11971;BME280;6045;42.682;23.294;2023-08-21T10:19:36;94943.75;;;37.26;26.24
11971;BME280;6045;42.682;23.294;2023-08-21T10:22:03;94939.94;;;37.76;25.32
11971;BME280;6045;42.682;23.294;2023-08-21T10:24:34;94947.28;;;38.48;24.79
11971;BME280;6045;42.682;23.294;2023-08-21T10:27:01;94940.06;;;38.68;25.16
11971;BME280;6045;42.682;23.294;2023-08-21T10:29:29;94940.88;;;38.82;24.29
11971;BME280;6045;42.682;23.294;2023-08-21T10:32:01;94928.81;;;39.17;24.56
11971;BME280;6045;42.682;23.294;2023-08-21T10:34:33;94925.56;;;39.29;23.26
11971;BME280;6045;42.682;23.294;2023-08-21T10:37:05;94924.34;;;39.34;23.18
11971;BME280;6045;42.682;23.294;2023-08-21T10:39:35;94921.53;;;39.41;23.63
11971;BME280;6045;42.682;23.294;2023-08-21T10:42:05;94921.44;;;39.62;22.16
11971;BME280;6045;42.682;23.294;2023-08-21T10:44:37;94917.22;;;39.26;23.35
11971;BME280;6045;42.682;23.294;2023-08-21T10:47:15;94912.44;;;39.16;22.33
11971;BME280;6045;42.682;23.294;2023-08-21T10:49:44;94916.81;;;39.20;23.09
11971;BME280;6045;42.682;23.294;2023-08-21T10:52:11;94916.41;;;39.29;22.09
11971;BME280;6045;42.682;23.294;2023-08-21T10:54:49;94912.03;;;39.21;22.19
11971;BME280;6045;42.682;23.294;2023-08-21T10:57:16;94906.31;;;39.49;22.17
11971;BME280;6045;42.682;23.294;2023-08-21T10:59:51;94903.56;;;39.35;22.53
11971;BME280;6045;42.682;23.294;2023-08-21T11:02:20;94902.38;;;39.32;23.06
11971;BME280;6045;42.682;23.294;2023-08-21T11:04:47;94903.22;;;39.22;22.51
11971;BME280;6045;42.682;23.294;2023-08-21T11:07:14;94892.84;;;39.09;22.54
11971;BME280;6045;42.682;23.294;2023-08-21T11:09:41;94895.69;;;38.98;22.05
11971;BME280;6045;42.682;23.294;2023-08-21T11:12:10;94890.50;;;38.96;21.40
11971;BME280;6045;42.682;23.294;2023-08-21T11:14:37;94893.25;;;39.11;22.60
11971;BME280;6045;42.682;23.294;2023-08-21T11:17:05;94891.50;;;39.52;20.75
11971;BME280;6045;42.682;23.294;2023-08-21T11:19:34;94883.38;;;39.75;21.20
11971;BME280;6045;42.682;23.294;2023-08-21T11:22:01;94890.06;;;39.92;21.16
11971;BME280;6045;42.682;23.294;2023-08-21T11:24:30;94883.19;;;40.00;21.03
11971;BME280;6045;42.682;23.294;2023-08-21T11:26:58;94887.59;;;40.01;20.50
11971;BME280;6045;42.682;23.294;2023-08-21T11:29:25;94891.66;;;39.93;20.80
11971;BME280;6045;42.682;23.294;2023-08-21T11:31:53;94887.66;;;39.94;21.42
11971;BME280;6045;42.682;23.294;2023-08-21T11:34:21;94879.41;;;39.73;20.27
11971;BME280;6045;42.682;23.294;2023-08-21T11:36:52;94870.47;;;39.09;21.67
11971;BME280;6045;42.682;23.294;2023-08-21T11:39:19;94862.56;;;38.82;21.14
11971;BME280;6045;42.682;23.294;2023-08-21T11:41:57;94868.53;;;38.95;22.41
11971;BME280;6045;42.682;23.294;2023-08-21T11:44:24;94870.34;;;39.44;21.48
11971;BME280;6045;42.682;23.294;2023-08-21T11:46:51;94871.91;;;39.59;20.42
11971;BME280;6045;42.682;23.294;2023-08-21T11:49:19;94868.06;;;39.11;20.87
11971;BME280;6045;42.682;23.294;2023-08-21T11:51:48;94867.81;;;38.45;21.25
11971;BME280;6045;42.682;23.294;2023-08-21T11:54:18;94866.97;;;38.83;21.11
11971;BME280;6045;42.682;23.294;2023-08-21T11:56:48;94874.50;;;39.08;21.73
11971;BME280;6045;42.682;23.294;2023-08-21T11:59:22;94873.59;;;39.32;21.70
11971;BME280;6045;42.682;23.294;2023-08-21T12:01:50;94870.00;;;39.35;21.05
11971;BME280;6045;42.682;23.294;2023-08-21T12:04:17;94863.66;;;39.24;21.23
11971;BME280;6045;42.682;23.294;2023-08-21T12:06:44;94860.28;;;39.53;20.79
11971;BME280;6045;42.682;23.294;2023-08-21T12:09:11;94859.81;;;39.69;21.04
11971;BME280;6045;42.682;23.294;2023-08-21T12:11:40;94862.66;;;39.62;20.86
11971;BME280;6045;42.682;23.294;2023-08-21T12:14:07;94858.22;;;39.68;20.58
11971;BME280;6045;42.682;23.294;2023-08-21T12:16:43;94853.88;;;39.60;21.00
11971;BME280;6045;42.682;23.294;2023-08-21T12:19:10;94857.47;;;39.64;20.41
11971;BME280;6045;42.682;23.294;2023-08-21T12:21:38;94848.75;;;39.44;21.13
11971;BME280;6045;42.682;23.294;2023-08-21T12:24:05;94858.06;;;39.13;21.13
11971;BME280;6045;42.682;23.294;2023-08-21T12:26:32;94845.66;;;39.28;20.40
11971;BME280;6045;42.682;23.294;2023-08-21T12:29:01;94843.16;;;39.44;20.55
11971;BME280;6045;42.682;23.294;2023-08-21T12:31:28;94841.13;;;39.52;20.85
11971;BME280;6045;42.682;23.294;2023-08-21T12:33:55;94847.03;;;39.64;21.11
11971;BME280;6045;42.682;23.294;2023-08-21T12:36:23;94835.22;;;39.36;21.00
11971;BME280;6045;42.682;23.294;2023-08-21T12:38:49;94828.59;;;38.87;21.14
11971;BME280;6045;42.682;23.294;2023-08-21T12:41:16;94828.66;;;38.59;21.49
11971;BME280;6045;42.682;23.294;2023-08-21T12:43:43;94840.28;;;38.19;21.79
11971;BME280;6045;42.682;23.294;2023-08-21T12:46:12;94829.09;;;37.66;22.21
11971;BME280;6045;42.682;23.294;2023-08-21T12:48:39;94825.88;;;37.64;22.75
11971;BME280;6045;42.682;23.294;2023-08-21T12:51:06;94821.94;;;37.68;23.78
11971;BME280;6045;42.682;23.294;2023-08-21T12:53:34;94827.09;;;37.81;23.08
11971;BME280;6045;42.682;23.294;2023-08-21T12:56:01;94813.16;;;37.95;23.26
11971;BME280;6045;42.682;23.294;2023-08-21T12:58:29;94809.19;;;37.96;21.82
11971;BME280;6045;42.682;23.294;2023-08-21T13:00:56;94803.59;;;37.89;22.09
11971;BME280;6045;42.682;23.294;2023-08-21T13:03:24;94815.53;;;37.79;21.77